createdAt,value
2023-03-24T00:00:14.763Z,5.93
2023-03-24T00:04:17.892Z,6.47
2023-03-24T00:08:18.959Z,5.50
2023-03-24T00:12:19.986Z,8.47
2023-03-24T00:16:22.267Z,7.80
2023-03-24T00:20:27.578Z,5.57
2023-03-24T00:24:28.278Z,5.47
2023-03-24T00:28:28.806Z,8.27
2023-03-24T00:32:30.754Z,7.33
2023-03-24T00:36:34.134Z,10.40
2023-03-24T00:40:34.862Z,6.93
2023-03-24T00:44:36.585Z,6.80
2023-03-24T00:48:39.033Z,13.43
2023-03-24T00:52:44.687Z,5.57
2023-03-24T00:56:50.194Z,6.23
2023-03-24T01:00:53.440Z,6.57
2023-03-24T01:04:57.661Z,6.47
2023-03-24T01:09:03.076Z,8.80
2023-03-24T01:13:05.669Z,6.40
2023-03-24T01:17:08.022Z,7.47
2023-03-24T01:21:09.657Z,5.70
2023-03-24T01:25:17.030Z,5.93
2023-03-24T01:29:17.499Z,7.33
2023-03-24T01:33:19.640Z,8.83
2023-03-24T01:37:20.299Z,8.43
2023-03-24T01:41:23.748Z,9.40
2023-03-24T01:45:59.093Z,8.20
2023-03-24T01:50:05.696Z,7.23
2023-03-24T01:54:11.739Z,6.27
2023-03-24T01:58:15.283Z,8.67
2023-03-24T02:02:39.308Z,8.10
2023-03-24T02:06:44.270Z,7.90
2023-03-24T02:10:48.172Z,8.47
2023-03-24T02:14:52.495Z,11.67
2023-03-24T02:19:15.069Z,7.17
2023-03-24T02:23:50.515Z,10.97
2023-03-24T02:28:21.142Z,10.53
2023-03-24T02:33:14.287Z,7.57
2023-03-24T02:38:12.132Z,8.13
2023-03-24T02:42:29.954Z,8.63
2023-03-24T02:46:43.398Z,7.53
2023-03-24T02:50:52.922Z,9.53
2023-03-24T02:55:03.861Z,9.93
2023-03-24T02:59:12.928Z,8.27
2023-03-24T03:03:24.224Z,18.03
2023-03-24T03:07:33.834Z,31.63
2023-03-24T03:11:34.610Z,11.00
2023-03-24T03:15:42.514Z,7.30
2023-03-24T03:19:48.403Z,9.47
2023-03-24T03:23:55.725Z,8.57
2023-03-24T03:28:00.866Z,10.03
2023-03-24T03:32:08.933Z,13.37
2023-03-24T03:36:18.741Z,9.77
2023-03-24T03:40:26.126Z,11.40
2023-03-24T03:44:34.486Z,8.97
2023-03-24T03:48:39.816Z,9.83
2023-03-24T03:52:44.939Z,7.03
2023-03-24T03:56:47.163Z,8.73
2023-03-24T04:00:56.373Z,7.70
2023-03-24T04:05:33.515Z,10.80
2023-03-24T04:10:05.410Z,6.70
2023-03-24T04:14:26.649Z,7.40
2023-03-24T04:19:14.398Z,7.50
2023-03-24T04:23:30.997Z,6.17
2023-03-24T04:27:43.149Z,7.73
2023-03-24T04:31:53.764Z,10.20
2023-03-24T04:36:06.774Z,9.07
2023-03-24T04:40:27.380Z,8.63
2023-03-24T04:44:30.424Z,9.47
2023-03-24T04:48:51.297Z,6.83
2023-03-24T04:53:04.265Z,8.27
2023-03-24T04:57:09.005Z,7.37
2023-03-24T05:01:21.647Z,7.87
2023-03-24T05:05:42.341Z,6.40
2023-03-24T05:09:45.861Z,12.67
2023-03-24T05:13:50.153Z,8.63
2023-03-24T05:17:52.066Z,9.90
2023-03-24T05:21:54.572Z,6.60
2023-03-24T05:25:55.294Z,8.63
2023-03-24T05:30:00.620Z,8.87
2023-03-24T05:34:04.038Z,8.03
2023-03-24T05:38:07.598Z,7.30
2023-03-24T05:42:08.391Z,6.90
2023-03-24T05:46:12.080Z,7.37
2023-03-24T05:50:14.162Z,6.50
2023-03-24T05:54:14.982Z,7.43
2023-03-24T05:58:17.541Z,7.07
2023-03-24T06:02:25.616Z,6.93
2023-03-24T06:06:32.722Z,8.27
2023-03-24T06:10:33.444Z,12.73
2023-03-24T06:14:34.481Z,6.33
2023-03-24T06:18:44.518Z,9.93
2023-03-24T06:22:59.253Z,9.70
2023-03-24T06:27:09.090Z,6.63
2023-03-24T06:31:18.846Z,7.67
2023-03-24T06:35:22.486Z,11.27
2023-03-24T06:39:33.600Z,10.97
2023-03-24T06:43:35.690Z,9.13
2023-03-24T06:47:36.329Z,10.27
2023-03-24T06:51:41.049Z,7.33
2023-03-24T06:55:42.209Z,7.33
2023-03-24T06:59:45.054Z,7.90
2023-03-24T07:03:46.438Z,5.63
2023-03-24T07:08:27.856Z,6.77
2023-03-24T07:12:16.654Z,7.17
2023-03-24T07:16:18.546Z,7.87
2023-03-24T07:20:26.539Z,8.87
2023-03-24T07:24:52.236Z,6.63
2023-03-24T07:29:12.184Z,7.27
2023-03-24T07:33:35.822Z,7.63
2023-03-24T07:37:36.704Z,4.90
2023-03-24T07:41:40.480Z,6.17
2023-03-24T07:45:49.513Z,7.73
2023-03-24T07:49:54.319Z,7.33
2023-03-24T07:53:55.349Z,7.17
2023-03-24T07:58:10.556Z,9.23
2023-03-24T08:02:22.378Z,6.27
2023-03-24T08:07:00.985Z,5.77
2023-03-24T08:11:03.465Z,6.07
2023-03-24T08:15:09.892Z,6.30
2023-03-24T08:19:10.723Z,7.10
2023-03-24T08:23:11.472Z,9.43
2023-03-24T08:27:11.912Z,8.70
2023-03-24T08:31:16.529Z,6.63
2023-03-24T08:35:20.368Z,5.77
2023-03-24T08:39:21.222Z,6.37
2023-03-24T08:43:23.487Z,7.65
2023-03-24T08:47:26.627Z,5.55
2023-03-24T08:51:27.344Z,6.55
2023-03-24T08:55:31.184Z,5.22
2023-03-24T08:59:32.543Z,7.55
2023-03-24T09:03:36.817Z,5.30
2023-03-24T09:07:40.177Z,5.88
2023-03-24T09:11:41.885Z,4.43
2023-03-24T09:15:49.027Z,3.95
2023-03-24T09:19:52.462Z,5.00
2023-03-24T09:23:53.055Z,3.95
2023-03-24T09:27:57.744Z,5.43
2023-03-24T09:32:00.573Z,3.40
2023-03-24T09:36:08.073Z,3.30
2023-03-24T09:40:11.283Z,5.78
2023-03-24T09:44:26.548Z,17.87
2023-03-24T09:48:38.107Z,7.93
2023-03-24T09:52:47.221Z,6.33
2023-03-24T09:56:51.683Z,5.20
2023-03-24T10:00:54.607Z,6.47
2023-03-24T10:04:59.666Z,7.00
2023-03-24T10:09:25.606Z,7.47
2023-03-24T10:13:35.775Z,5.83
2023-03-24T10:17:51.250Z,8.80
2023-03-24T10:22:03.649Z,6.10
2023-03-24T10:26:20.256Z,7.23
2023-03-24T10:30:26.861Z,7.33
2023-03-24T10:34:35.035Z,5.00
2023-03-24T10:38:35.858Z,7.43
2023-03-24T10:42:42.021Z,4.30
2023-03-24T10:46:51.307Z,6.03
2023-03-24T10:50:52.453Z,4.55
2023-03-24T10:54:59.486Z,4.38
2023-03-24T10:59:07.336Z,3.15
2023-03-24T11:03:19.073Z,3.25
2023-03-24T11:07:26.752Z,2.08
2023-03-24T11:11:36.801Z,3.40
2023-03-24T11:16:01.366Z,1.80
2023-03-24T11:20:02.156Z,2.42
2023-03-24T11:24:05.783Z,3.58
2023-03-24T11:28:11.893Z,2.88
2023-03-24T11:32:25.132Z,1.70
2023-03-24T11:36:52.054Z,1.60
2023-03-24T11:41:02.835Z,1.95
2023-03-24T11:45:04.959Z,2.33
2023-03-24T11:49:08.973Z,2.53
2023-03-24T11:53:20.340Z,1.50
2023-03-24T11:57:45.444Z,1.55
2023-03-24T12:01:55.714Z,5.65
2023-03-24T12:06:15.822Z,2.10
2023-03-24T12:10:29.179Z,2.85
2023-03-24T12:14:48.288Z,3.55
2023-03-24T12:19:37.705Z,2.33
2023-03-24T12:23:52.874Z,2.28
2023-03-24T12:28:08.922Z,4.47
2023-03-24T12:32:23.701Z,2.50
2023-03-24T12:36:47.143Z,3.38
2023-03-24T12:41:18.825Z,2.63
2023-03-24T12:45:49.923Z,7.15
2023-03-24T12:50:15.305Z,3.22
2023-03-24T12:54:34.425Z,2.78
2023-03-24T12:58:47.455Z,3.92
2023-03-24T13:02:57.709Z,4.50
2023-03-24T13:07:07.377Z,5.63
2023-03-24T13:11:30.064Z,3.50
2023-03-24T13:15:44.500Z,2.72
2023-03-24T13:19:46.138Z,3.40
2023-03-24T13:23:57.805Z,2.90
2023-03-24T13:28:06.954Z,3.45
2023-03-24T13:32:17.470Z,2.35
2023-03-24T13:36:45.959Z,5.28
2023-03-24T13:40:51.088Z,1.83
2023-03-24T13:44:53.625Z,2.20
2023-03-24T13:49:03.453Z,4.35
2023-03-24T13:53:15.735Z,2.50
2023-03-24T13:57:24.437Z,2.08
2023-03-24T14:01:40.501Z,4.03
2023-03-24T14:06:05.142Z,2.22
2023-03-24T14:10:44.232Z,1.20
2023-03-24T14:15:19.603Z,3.97
2023-03-24T14:19:27.112Z,3.50
2023-03-24T14:23:41.014Z,1.83
2023-03-24T14:27:44.443Z,1.60
2023-03-24T14:31:48.054Z,2.40
2023-03-24T14:35:52.191Z,2.80
2023-03-24T14:39:57.622Z,3.33
2023-03-24T14:44:03.166Z,1.77
2023-03-24T14:48:06.177Z,2.27
2023-03-24T14:52:19.071Z,2.53
2023-03-24T14:56:26.118Z,3.40
2023-03-24T15:00:36.553Z,2.00
2023-03-24T15:04:40.051Z,6.17
2023-03-24T15:08:42.847Z,4.10
2023-03-24T15:12:51.779Z,3.20
2023-03-24T15:16:58.860Z,3.10
2023-03-24T15:20:59.461Z,4.33
2023-03-24T15:25:01.989Z,3.40
2023-03-24T15:29:09.506Z,3.30
2023-03-24T15:33:14.343Z,2.90
2023-03-24T15:37:26.277Z,2.83
2023-03-24T15:41:26.884Z,3.33
2023-03-24T15:45:33.931Z,2.30
2023-03-24T15:49:37.899Z,2.20
2023-03-24T15:53:49.571Z,3.53
2023-03-24T15:57:52.001Z,3.27
2023-03-24T16:01:56.342Z,2.40
2023-03-24T16:06:01.828Z,3.47
2023-03-24T16:10:10.265Z,2.57
2023-03-24T16:14:33.614Z,2.50
2023-03-24T16:18:41.097Z,2.57
2023-03-24T16:22:57.269Z,2.33
2023-03-24T16:26:57.812Z,2.43
2023-03-24T16:31:04.086Z,1.50
2023-03-24T16:35:04.854Z,2.10
2023-03-24T16:39:18.825Z,2.23
2023-03-24T16:43:20.003Z,1.73
2023-03-24T16:47:20.466Z,2.90
2023-03-24T16:51:22.146Z,1.23
2023-03-24T16:55:26.418Z,3.23
2023-03-24T16:59:27.413Z,3.03
2023-03-24T17:03:30.181Z,5.53
2023-03-24T17:07:31.411Z,5.03
2023-03-24T17:11:38.963Z,3.17
2023-03-24T17:15:39.401Z,4.77
2023-03-24T17:19:42.179Z,2.83
2023-03-24T17:23:44.434Z,2.90
2023-03-24T17:27:48.229Z,2.63
2023-03-24T17:31:48.849Z,2.23
2023-03-24T17:35:49.492Z,3.10
2023-03-24T17:39:49.933Z,5.10
2023-03-24T17:43:54.829Z,3.83
2023-03-24T17:47:56.567Z,4.50
2023-03-24T17:51:57.948Z,3.83
2023-03-24T17:56:06.071Z,4.63
2023-03-24T18:00:15.032Z,5.07
2023-03-24T18:04:17.845Z,3.53
2023-03-24T18:08:20.485Z,4.30
2023-03-24T18:12:24.285Z,8.90
2023-03-24T18:16:31.147Z,11.87
2023-03-24T18:20:33.062Z,5.20
2023-03-24T18:24:36.672Z,7.73
2023-03-24T18:28:40.083Z,9.27
2023-03-24T18:32:45.604Z,5.03
2023-03-24T18:36:50.582Z,5.60
2023-03-24T18:40:59.719Z,4.27
2023-03-24T18:45:02.818Z,4.73
2023-03-24T18:49:08.502Z,4.00
2023-03-24T18:53:10.264Z,5.43
2023-03-24T18:57:12.881Z,4.33
2023-03-24T19:01:23.272Z,4.90
2023-03-24T19:05:30.015Z,5.63
2023-03-24T19:09:32.602Z,6.23
2023-03-24T19:13:35.384Z,12.40
2023-03-24T19:17:37.595Z,13.87
2023-03-24T19:21:44.269Z,9.77
2023-03-24T19:25:46.875Z,9.10
2023-03-24T19:29:51.079Z,11.00
2023-03-24T19:33:54.589Z,10.33
2023-03-24T19:38:00.341Z,6.80
2023-03-24T19:42:04.667Z,8.27
2023-03-24T19:46:08.144Z,7.30
2023-03-24T19:50:11.689Z,7.53
2023-03-24T19:54:18.485Z,7.60
2023-03-24T19:58:21.877Z,11.07
2023-03-24T20:02:25.297Z,10.47
2023-03-24T20:06:28.298Z,9.63
2023-03-24T20:10:32.825Z,14.93
2023-03-24T20:14:37.579Z,15.53
2023-03-24T20:18:40.767Z,7.83
2023-03-24T20:22:46.123Z,10.63
2023-03-24T20:26:49.395Z,7.57
2023-03-24T20:30:52.119Z,10.17
2023-03-24T20:34:53.021Z,12.10
2023-03-24T20:38:53.681Z,14.23
2023-03-24T20:42:56.733Z,9.03
2023-03-24T20:46:59.363Z,7.73
2023-03-24T20:51:00.297Z,6.90
2023-03-24T20:55:01.668Z,5.07
2023-03-24T20:59:07.069Z,6.70
2023-03-24T21:03:08.061Z,8.77
2023-03-24T21:07:08.747Z,6.33
2023-03-24T21:11:09.810Z,5.90
2023-03-24T21:15:14.197Z,3.70
2023-03-24T21:19:16.364Z,5.63
2023-03-24T21:23:18.768Z,6.70
2023-03-24T21:27:21.824Z,6.87
2023-03-24T21:31:29.122Z,11.10
2023-03-24T21:35:31.753Z,6.83
2023-03-24T21:39:32.923Z,5.00
2023-03-24T21:43:35.111Z,5.53
2023-03-24T21:47:38.745Z,6.83
2023-03-24T21:51:43.011Z,4.57
2023-03-24T21:55:44.527Z,3.40
2023-03-24T21:59:45.125Z,3.87
2023-03-24T22:03:48.181Z,2.83
2023-03-24T22:07:50.360Z,2.30
2023-03-24T22:11:53.157Z,3.23
2023-03-24T22:15:58.022Z,4.47
2023-03-24T22:20:01.487Z,6.77
2023-03-24T22:24:02.269Z,3.87
2023-03-24T22:28:03.020Z,3.87
2023-03-24T22:32:04.112Z,2.63
2023-03-24T22:36:08.952Z,2.70
2023-03-24T22:40:13.643Z,3.17
2023-03-24T22:44:15.969Z,4.00
2023-03-24T22:48:16.391Z,2.20
2023-03-24T22:52:19.617Z,3.53
2023-03-24T22:56:20.704Z,2.97
2023-03-24T23:00:22.873Z,5.70
2023-03-24T23:04:23.957Z,2.40
2023-03-24T23:08:29.780Z,3.53
2023-03-24T23:12:32.397Z,2.17
2023-03-24T23:16:33.430Z,2.80
2023-03-24T23:20:33.998Z,2.80
2023-03-24T23:24:39.765Z,3.73
2023-03-24T23:28:40.468Z,2.80
2023-03-24T23:32:44.367Z,2.60
2023-03-24T23:36:50.112Z,2.63
2023-03-24T23:40:53.413Z,2.10
2023-03-24T23:44:54.186Z,3.13
2023-03-24T23:48:54.998Z,2.57
2023-03-24T23:52:55.621Z,2.47
2023-03-24T23:56:58.558Z,3.77
